Time;durP1;ratioP1;P1;durP2;ratioP2;P2;SDS_P1;SDS_P2;PMS_P1;PMS_P2;Temp;Humidity;BMP_temperature;BMP_pressure;BME280_temperature;BME280_humidity;BME280_pressure;Samples;Min_cycle;Max_cycle;Signal;HPM_P1;HPM_P2
2021/12/09 00:00:00;;;;;;;9.63;4.55;;;1.80;99.90;;;;;;4977633;28;20165;-83
2021/12/09 00:02:29;;;;;;;14.35;4.50;;;1.70;99.90;;;;;;4989239;28;20427;-83
2021/12/09 00:04:56;;;;;;;10.88;4.70;;;1.70;99.90;;;;;;4996319;28;20086;-82
2021/12/09 00:07:22;;;;;;;13.07;4.90;;;1.80;99.90;;;;;;4972742;28;20578;-82
2021/12/09 00:09:49;;;;;;;11.27;4.88;;;1.80;99.90;;;;;;4994901;28;20034;-82
2021/12/09 00:12:15;;;;;;;9.35;4.45;;;1.70;99.90;;;;;;4977035;28;20103;-82
2021/12/09 00:14:40;;;;;;;11.63;5.30;;;1.70;99.90;;;;;;4991424;28;20049;-82
2021/12/09 00:17:08;;;;;;;9.35;4.40;;;1.70;99.90;;;;;;4978989;28;20399;-82
2021/12/09 00:19:35;;;;;;;12.50;5.18;;;1.70;99.90;;;;;;4984928;28;20126;-82
2021/12/09 00:22:04;;;;;;;10.15;4.78;;;1.60;99.90;;;;;;4991563;28;20093;-82
2021/12/09 00:24:30;;;;;;;9.60;4.53;;;1.70;99.90;;;;;;5000284;28;20502;-82
2021/12/09 00:26:55;;;;;;;13.15;5.38;;;1.60;99.90;;;;;;4995571;28;20069;-83
2021/12/09 00:29:22;;;;;;;8.57;4.95;;;1.70;99.90;;;;;;4995973;28;20491;-82
2021/12/09 00:31:48;;;;;;;9.45;5.03;;;1.70;99.90;;;;;;4997114;28;20042;-83
2021/12/09 00:34:14;;;;;;;10.35;5.60;;;1.70;99.90;;;;;;4993653;28;20744;-83
2021/12/09 00:36:56;;;;;;;11.68;5.07;;;1.70;99.90;;;;;;4978277;28;20146;-82
2021/12/09 00:39:21;;;;;;;10.50;4.93;;;1.70;99.90;;;;;;4995163;28;20054;-82
2021/12/09 00:41:47;;;;;;;12.90;5.45;;;1.70;99.90;;;;;;4988365;28;20053;-82
2021/12/09 00:44:13;;;;;;;11.75;5.35;;;1.70;99.90;;;;;;4995384;28;20045;-83
2021/12/09 00:46:38;;;;;;;14.68;5.63;;;1.70;99.90;;;;;;4977889;28;20041;-83
2021/12/09 00:49:05;;;;;;;10.05;5.25;;;1.70;99.90;;;;;;5008712;28;20349;-82
2021/12/09 00:51:31;;;;;;;10.85;5.20;;;1.70;99.90;;;;;;4991433;28;20064;-83
2021/12/09 00:53:57;;;;;;;15.48;5.05;;;1.70;99.90;;;;;;4994056;28;20542;-83
2021/12/09 00:56:22;;;;;;;10.70;5.10;;;1.70;99.90;;;;;;4987034;28;20050;-83
2021/12/09 00:58:49;;;;;;;9.60;5.35;;;1.70;99.90;;;;;;4990429;28;20407;-82
2021/12/09 01:01:15;;;;;;;12.25;5.28;;;1.80;99.90;;;;;;4987253;28;20060;-83
2021/12/09 01:03:42;;;;;;;12.27;5.60;;;1.70;99.90;;;;;;4992401;28;20236;-83
2021/12/09 01:06:09;;;;;;;10.60;5.70;;;1.80;99.90;;;;;;4969145;28;20102;-83
2021/12/09 01:08:35;;;;;;;12.57;5.95;;;1.80;99.90;;;;;;4994004;28;20038;-83
2021/12/09 01:11:01;;;;;;;10.05;4.82;;;1.80;99.90;;;;;;4993987;28;20105;-83
2021/12/09 01:13:27;;;;;;;11.55;5.18;;;1.80;99.90;;;;;;4975098;28;20042;-83
2021/12/09 01:15:53;;;;;;;8.85;5.15;;;1.80;99.90;;;;;;4971520;28;20042;-82
2021/12/09 01:18:19;;;;;;;10.80;5.47;;;1.80;99.90;;;;;;5013124;28;20038;-83
2021/12/09 01:20:45;;;;;;;10.60;5.45;;;1.80;99.90;;;;;;5008910;28;20038;-83
2021/12/09 01:23:11;;;;;;;11.57;5.50;;;1.80;99.90;;;;;;4992476;28;20069;-83
2021/12/09 01:25:37;;;;;;;13.75;5.35;;;1.80;99.90;;;;;;4992388;28;20045;-83
2021/12/09 01:28:05;;;;;;;13.50;6.00;;;1.80;99.90;;;;;;4993417;28;20410;-82
2021/12/09 01:30:31;;;;;;;10.18;4.80;;;1.80;99.90;;;;;;5015855;28;20053;-82
2021/12/09 01:32:58;;;;;;;13.20;5.25;;;1.70;99.90;;;;;;4990465;28;20097;-83
2021/12/09 01:35:33;;;;;;;10.18;5.55;;;1.70;99.90;;;;;;4992900;28;20098;-83
2021/12/09 01:38:07;;;;;;;14.63;6.32;;;1.70;99.90;;;;;;4997736;28;20258;-83
2021/12/09 01:40:32;;;;;;;10.77;5.43;;;1.60;99.90;;;;;;4992151;28;20064;-83
2021/12/09 01:42:58;;;;;;;14.82;6.15;;;1.60;99.90;;;;;;4998373;28;20433;-83
2021/12/09 01:45:25;;;;;;;11.20;5.93;;;1.60;99.90;;;;;;4997958;28;20048;-82
2021/12/09 01:47:51;;;;;;;13.27;5.53;;;1.60;99.90;;;;;;4982014;28;20037;-83
2021/12/09 01:50:16;;;;;;;12.18;5.80;;;1.60;99.90;;;;;;4994241;28;20070;-82
2021/12/09 01:52:43;;;;;;;17.15;6.45;;;1.60;99.90;;;;;;4986059;28;20117;-82
2021/12/09 01:55:12;;;;;;;10.68;5.82;;;1.60;99.90;;;;;;4991783;28;20042;-82
2021/12/09 01:57:37;;;;;;;13.43;6.50;;;1.60;99.90;;;;;;4994131;28;20066;-82
2021/12/09 02:00:07;;;;;;;10.80;5.53;;;1.60;99.90;;;;;;4994900;28;20049;-83
2021/12/09 02:02:33;;;;;;;10.70;6.40;;;1.60;99.90;;;;;;4998640;28;20049;-83
2021/12/09 02:04:58;;;;;;;12.80;6.00;;;1.60;99.90;;;;;;4994016;28;20045;-82
2021/12/09 02:07:24;;;;;;;14.18;6.10;;;1.60;99.90;;;;;;4999750;28;20049;-83
2021/12/09 02:09:49;;;;;;;13.00;6.60;;;1.60;99.90;;;;;;4997341;28;20041;-83
2021/12/09 02:12:15;;;;;;;15.73;7.05;;;1.60;99.90;;;;;;4997108;28;20096;-82
2021/12/09 02:14:43;;;;;;;15.13;6.60;;;1.60;99.90;;;;;;4999341;28;20026;-82
2021/12/09 02:17:10;;;;;;;12.95;5.95;;;1.60;99.90;;;;;;4992978;28;20041;-83
2021/12/09 02:19:39;;;;;;;15.27;6.47;;;1.60;99.90;;;;;;4978505;28;20046;-83
2021/12/09 02:22:05;;;;;;;12.57;6.13;;;1.60;99.90;;;;;;4987452;28;20093;-82
2021/12/09 02:24:30;;;;;;;12.25;6.78;;;1.60;99.90;;;;;;4997475;28;20073;-83
2021/12/09 02:26:56;;;;;;;10.40;5.43;;;1.60;99.90;;;;;;4997267;28;20033;-82
2021/12/09 02:29:22;;;;;;;15.55;5.72;;;1.60;99.90;;;;;;4997838;28;20065;-82
2021/12/09 02:31:47;;;;;;;12.98;6.03;;;1.60;99.90;;;;;;4997330;28;20054;-83
2021/12/09 02:34:13;;;;;;;10.95;5.80;;;1.60;99.90;;;;;;4981202;28;20037;-82
2021/12/09 02:36:42;;;;;;;12.25;5.88;;;1.50;99.90;;;;;;4994013;28;20080;-82
2021/12/09 02:39:11;;;;;;;12.80;5.75;;;1.50;99.90;;;;;;4993318;28;20517;-83
2021/12/09 02:41:38;;;;;;;11.93;6.82;;;1.50;99.90;;;;;;4997131;28;20046;-82
2021/12/09 02:44:08;;;;;;;11.23;6.00;;;1.50;99.90;;;;;;4996135;28;20085;-82
2021/12/09 02:46:37;;;;;;;11.70;5.22;;;1.50;99.90;;;;;;5000642;28;20038;-82
2021/12/09 02:49:09;;;;;;;12.15;5.57;;;1.50;99.90;;;;;;4994796;28;20110;-83
2021/12/09 02:51:36;;;;;;;13.85;5.75;;;1.50;99.90;;;;;;4993850;28;20050;-82
2021/12/09 02:54:05;;;;;;;15.50;5.95;;;1.40;99.90;;;;;;4996038;28;20040;-83
2021/12/09 02:56:31;;;;;;;14.30;5.63;;;1.40;99.90;;;;;;4993785;28;20034;-82
2021/12/09 02:58:56;;;;;;;12.10;5.70;;;1.40;99.90;;;;;;4965287;28;20062;-82
2021/12/09 03:01:25;;;;;;;11.32;6.13;;;1.40;99.90;;;;;;4990160;28;20045;-82
2021/12/09 03:03:56;;;;;;;14.85;6.15;;;1.40;99.90;;;;;;4980719;28;20137;-83
2021/12/09 03:06:35;;;;;;;12.05;5.57;;;1.30;99.90;;;;;;4980997;28;20228;-82
2021/12/09 03:09:05;;;;;;;12.90;5.57;;;1.30;99.90;;;;;;4981287;28;20606;-82
2021/12/09 03:11:32;;;;;;;18.80;7.63;;;1.40;99.90;;;;;;4998667;28;20050;-82
2021/12/09 03:14:01;;;;;;;11.52;6.20;;;1.40;99.90;;;;;;5003826;28;20037;-82
2021/12/09 03:16:27;;;;;;;15.00;7.05;;;1.40;99.90;;;;;;4997490;28;20033;-82
2021/12/09 03:19:00;;;;;;;15.75;7.80;;;1.40;99.90;;;;;;4979014;28;20053;-82
2021/12/09 03:21:29;;;;;;;14.75;6.32;;;1.40;99.90;;;;;;4996693;28;20423;-82
2021/12/09 03:23:56;;;;;;;14.38;6.30;;;1.40;99.90;;;;;;4979355;28;20041;-82
2021/12/09 03:26:29;;;;;;;16.88;6.40;;;1.40;99.90;;;;;;4977459;28;20041;-82
2021/12/09 03:28:56;;;;;;;11.27;5.80;;;1.30;99.90;;;;;;4985906;28;20050;-82
2021/12/09 03:31:21;;;;;;;17.48;7.47;;;1.30;99.90;;;;;;4997161;28;20034;-82
2021/12/09 03:33:47;;;;;;;13.85;7.00;;;1.40;99.90;;;;;;4991899;28;20038;-82
2021/12/09 03:36:13;;;;;;;10.30;6.13;;;1.40;99.90;;;;;;4995775;28;20415;-82
2021/12/09 03:38:41;;;;;;;12.77;6.30;;;1.40;99.90;;;;;;4994906;28;20495;-82
2021/12/09 03:41:07;;;;;;;14.32;6.30;;;1.40;99.90;;;;;;4980274;28;20510;-82
2021/12/09 03:43:33;;;;;;;15.65;6.47;;;1.30;99.90;;;;;;4980804;28;20085;-83
2021/12/09 03:45:59;;;;;;;15.50;6.82;;;1.30;99.90;;;;;;5001431;28;20453;-82
2021/12/09 03:48:27;;;;;;;13.82;6.25;;;1.30;99.90;;;;;;5001280;28;20042;-82
2021/12/09 03:50:53;;;;;;;16.95;6.70;;;1.30;99.90;;;;;;4995332;28;20046;-82
2021/12/09 03:53:19;;;;;;;16.77;6.55;;;1.20;99.90;;;;;;4990131;28;20045;-83
2021/12/09 03:55:45;;;;;;;12.85;6.43;;;1.20;99.90;;;;;;4995868;28;20038;-82
2021/12/09 03:58:11;;;;;;;14.57;5.50;;;1.20;99.90;;;;;;5015498;28;20053;-83
2021/12/09 04:00:36;;;;;;;11.15;5.75;;;1.20;99.90;;;;;;4994953;28;20037;-83
2021/12/09 04:03:02;;;;;;;14.00;6.68;;;1.20;99.90;;;;;;4994456;28;20057;-82
2021/12/09 04:05:28;;;;;;;14.55;6.53;;;1.20;99.90;;;;;;4994892;28;20100;-82
2021/12/09 04:07:53;;;;;;;13.30;6.47;;;1.20;99.90;;;;;;4991592;28;20045;-82
2021/12/09 04:10:20;;;;;;;13.55;6.68;;;1.20;99.90;;;;;;4979359;28;20076;-83
2021/12/09 04:12:46;;;;;;;16.63;6.32;;;1.10;99.90;;;;;;4995387;28;20484;-82
2021/12/09 04:15:11;;;;;;;15.25;6.72;;;1.20;99.90;;;;;;4989518;28;20065;-82
2021/12/09 04:17:37;;;;;;;15.70;6.15;;;1.20;99.90;;;;;;4998245;28;20038;-82
2021/12/09 04:20:08;;;;;;;13.15;6.38;;;1.10;99.90;;;;;;4971386;28;20076;-82
2021/12/09 04:22:34;;;;;;;20.02;6.68;;;1.10;99.90;;;;;;4978146;28;20050;-81
2021/12/09 04:25:00;;;;;;;15.13;6.25;;;1.10;99.90;;;;;;4994680;28;20041;-82
2021/12/09 04:27:26;;;;;;;14.23;6.07;;;1.10;99.90;;;;;;4995389;28;20040;-82
2021/12/09 04:29:53;;;;;;;17.42;6.10;;;1.10;99.90;;;;;;4979620;28;20518;-83
2021/12/09 04:32:19;;;;;;;12.57;5.00;;;1.20;99.90;;;;;;4996253;28;20180;-82
2021/12/09 04:34:45;;;;;;;14.23;7.60;;;1.10;99.90;;;;;;5009008;28;20410;-82
2021/12/09 04:37:12;;;;;;;16.48;6.15;;;1.10;99.90;;;;;;4992308;28;20391;-82
2021/12/09 04:39:38;;;;;;;9.98;6.13;;;1.10;99.90;;;;;;4985921;28;20410;-81
2021/12/09 04:42:05;;;;;;;9.88;4.88;;;1.10;99.90;;;;;;4990812;28;20641;-82
2021/12/09 04:44:30;;;;;;;13.48;6.53;;;1.10;99.90;;;;;;4991788;28;20081;-83
2021/12/09 04:46:56;;;;;;;12.95;6.18;;;1.10;99.90;;;;;;4990105;28;20039;-82
2021/12/09 04:49:22;;;;;;;11.20;6.35;;;1.00;99.90;;;;;;5005245;28;20171;-82
2021/12/09 04:51:48;;;;;;;17.65;6.63;;;1.10;99.90;;;;;;4985510;28;20095;-82
2021/12/09 04:54:15;;;;;;;12.40;6.00;;;1.00;99.90;;;;;;4992801;28;20097;-82
2021/12/09 04:56:41;;;;;;;12.90;6.53;;;1.00;99.90;;;;;;4994918;28;20376;-82
2021/12/09 04:59:07;;;;;;;12.23;6.10;;;1.00;99.90;;;;;;4995471;28;20042;-83
2021/12/09 05:01:33;;;;;;;15.95;6.22;;;1.00;99.90;;;;;;4989740;28;20052;-83
2021/12/09 05:03:59;;;;;;;12.85;5.88;;;1.00;99.90;;;;;;4993138;28;20054;-82
2021/12/09 05:06:26;;;;;;;12.45;6.10;;;1.00;99.90;;;;;;4964450;28;20485;-83
2021/12/09 05:08:52;;;;;;;11.75;6.03;;;1.00;99.90;;;;;;4994090;28;20066;-83
2021/12/09 05:13:54;;;;;;;16.42;6.57;;;1.00;99.90;;;;;;4993815;28;20557;-82
2021/12/09 05:16:21;;;;;;;20.25;6.70;;;1.00;99.90;;;;;;4971826;28;20522;-82
2021/12/09 05:18:48;;;;;;;12.57;6.95;;;1.00;99.90;;;;;;4993522;28;20042;-83
2021/12/09 05:21:15;;;;;;;11.45;6.18;;;1.00;99.90;;;;;;4969368;28;20073;-82
2021/12/09 05:23:42;;;;;;;12.70;6.20;;;1.00;99.90;;;;;;4983734;28;20077;-82
2021/12/09 05:26:09;;;;;;;13.48;6.45;;;1.00;99.90;;;;;;5006891;28;20045;-83
2021/12/09 05:28:36;;;;;;;12.98;6.28;;;0.90;99.90;;;;;;4973741;28;20048;-82
2021/12/09 05:33:49;;;;;;;12.57;6.05;;;0.90;99.90;;;;;;4985003;28;20496;-82
2021/12/09 05:36:16;;;;;;;14.77;6.55;;;1.00;99.90;;;;;;4978225;28;20100;-82
2021/12/09 05:38:42;;;;;;;12.90;5.72;;;1.00;99.90;;;;;;4974138;28;20049;-83
2021/12/09 05:41:08;;;;;;;13.77;6.03;;;0.90;99.90;;;;;;4991610;28;20034;-82
2021/12/09 05:43:34;;;;;;;15.73;6.50;;;0.90;99.90;;;;;;5020874;28;20046;-82
2021/12/09 05:46:00;;;;;;;13.85;5.82;;;0.90;99.90;;;;;;4988815;28;20060;-82
2021/12/09 05:48:26;;;;;;;14.57;6.57;;;0.90;99.90;;;;;;4993416;28;20046;-82
2021/12/09 05:50:51;;;;;;;12.73;6.38;;;0.90;99.90;;;;;;4995217;28;20499;-83
2021/12/09 05:53:17;;;;;;;14.63;6.22;;;0.90;99.90;;;;;;5005662;28;20148;-82
2021/12/09 05:55:44;;;;;;;16.85;6.32;;;0.90;99.90;;;;;;4966020;28;20046;-83
2021/12/09 05:58:15;;;;;;;13.55;5.85;;;0.90;99.90;;;;;;4975921;28;20035;-82
2021/12/09 06:00:42;;;;;;;16.63;6.33;;;0.90;99.90;;;;;;4975103;28;20099;-82
2021/12/09 06:03:08;;;;;;;13.95;6.53;;;0.90;99.90;;;;;;4990488;28;20374;-82
2021/12/09 06:05:35;;;;;;;12.00;5.93;;;0.90;99.90;;;;;;4993100;28;20058;-82
2021/12/09 06:08:01;;;;;;;17.20;7.20;;;0.90;99.90;;;;;;5010660;28;20038;-82
2021/12/09 06:10:27;;;;;;;16.85;5.53;;;0.90;99.90;;;;;;5006246;28;20037;-82
2021/12/09 06:12:53;;;;;;;12.70;5.72;;;0.90;99.90;;;;;;4994706;28;20034;-82
2021/12/09 06:15:19;;;;;;;16.92;6.28;;;0.90;99.90;;;;;;4978445;28;20037;-82
2021/12/09 06:17:44;;;;;;;14.90;6.63;;;0.90;99.90;;;;;;4994179;28;20355;-82
2021/12/09 06:20:11;;;;;;;17.02;7.00;;;0.90;99.90;;;;;;4979980;28;20477;-83
2021/12/09 06:22:36;;;;;;;14.05;6.25;;;0.90;99.90;;;;;;4993746;28;20068;-82
2021/12/09 06:25:04;;;;;;;15.23;5.57;;;0.90;99.90;;;;;;4996307;28;20510;-82
2021/12/09 06:27:29;;;;;;;15.65;6.35;;;0.90;99.90;;;;;;4998029;28;20056;-82
2021/12/09 06:29:55;;;;;;;18.85;6.47;;;0.90;99.90;;;;;;4981921;28;20029;-83
2021/12/09 06:32:21;;;;;;;21.25;6.55;;;0.80;99.90;;;;;;4993625;28;20403;-82
2021/12/09 06:34:46;;;;;;;13.43;5.93;;;0.80;99.90;;;;;;4989244;28;20045;-82
2021/12/09 06:37:12;;;;;;;13.02;6.53;;;0.80;99.90;;;;;;4980890;28;20048;-82
2021/12/09 06:39:39;;;;;;;17.27;7.25;;;0.90;99.90;;;;;;4997968;28;20061;-83
2021/12/09 06:42:05;;;;;;;25.50;6.47;;;0.90;99.90;;;;;;4998070;28;20050;-82
2021/12/09 06:44:31;;;;;;;17.65;6.22;;;0.90;99.90;;;;;;4982171;28;20081;-82
2021/12/09 06:46:57;;;;;;;14.85;6.50;;;0.90;99.90;;;;;;4998219;28;20116;-82
2021/12/09 06:49:23;;;;;;;16.42;6.18;;;0.90;99.90;;;;;;4996618;28;20038;-82
2021/12/09 06:51:49;;;;;;;22.02;7.32;;;0.90;99.90;;;;;;4997533;28;20042;-84
2021/12/09 06:54:15;;;;;;;15.15;6.20;;;0.90;99.90;;;;;;5007984;28;20042;-83
2021/12/09 06:56:41;;;;;;;13.52;5.90;;;0.90;99.90;;;;;;4980267;28;20117;-82
2021/12/09 06:59:06;;;;;;;15.93;6.15;;;0.90;99.90;;;;;;4993461;28;20361;-82
2021/12/09 07:01:32;;;;;;;11.88;6.05;;;0.90;99.90;;;;;;4994017;28;20782;-83
2021/12/09 07:03:58;;;;;;;12.05;6.28;;;0.90;99.90;;;;;;4994538;28;20045;-83
2021/12/09 07:06:24;;;;;;;14.93;5.85;;;0.90;99.90;;;;;;4974544;28;20447;-83
2021/12/09 07:08:52;;;;;;;15.63;7.78;;;0.90;99.90;;;;;;4996459;28;20057;-83
2021/12/09 07:11:19;;;;;;;15.50;5.90;;;0.90;99.90;;;;;;4994308;28;20042;-83
2021/12/09 07:13:46;;;;;;;19.83;5.72;;;0.90;99.90;;;;;;4995061;28;20052;-83
2021/12/09 07:16:12;;;;;;;22.20;6.18;;;0.90;99.90;;;;;;4975164;28;20514;-82
2021/12/09 07:18:38;;;;;;;15.07;5.90;;;0.90;99.90;;;;;;4992136;28;20034;-86
2021/12/09 07:21:05;;;;;;;12.38;5.47;;;0.90;99.90;;;;;;4993307;28;20053;-83
2021/12/09 07:23:32;;;;;;;15.57;5.95;;;0.90;99.90;;;;;;4978493;28;20499;-83
2021/12/09 07:25:58;;;;;;;12.93;5.63;;;0.90;99.90;;;;;;4976450;28;20042;-83
2021/12/09 07:28:24;;;;;;;17.80;6.85;;;0.90;99.90;;;;;;4973857;28;20049;-83
2021/12/09 07:30:49;;;;;;;14.48;6.05;;;0.90;99.90;;;;;;4995722;28;20049;-83
2021/12/09 07:33:15;;;;;;;12.77;6.05;;;0.90;99.90;;;;;;5019332;28;20491;-84
2021/12/09 07:35:41;;;;;;;16.67;6.05;;;0.80;99.90;;;;;;4991795;28;20042;-84
2021/12/09 07:38:07;;;;;;;17.08;6.32;;;0.80;99.90;;;;;;4994074;28;20104;-84
2021/12/09 07:40:33;;;;;;;14.98;5.50;;;0.80;99.90;;;;;;4993838;28;20045;-84
2021/12/09 07:42:59;;;;;;;17.00;6.32;;;0.80;99.90;;;;;;4982790;28;20049;-84
2021/12/09 07:45:25;;;;;;;10.20;5.45;;;0.80;99.90;;;;;;4994969;28;20448;-84
2021/12/09 07:47:51;;;;;;;19.25;6.95;;;0.90;99.90;;;;;;4994520;28;20048;-84
2021/12/09 07:50:20;;;;;;;10.93;5.38;;;0.80;99.90;;;;;;4992841;28;20175;-84
2021/12/09 07:52:48;;;;;;;16.50;7.20;;;0.90;99.90;;;;;;4983799;28;20049;-84
2021/12/09 07:55:15;;;;;;;16.25;5.30;;;0.90;99.90;;;;;;4984805;28;20041;-83
2021/12/09 07:57:42;;;;;;;10.70;5.07;;;0.80;99.90;;;;;;4979715;28;20048;-84
2021/12/09 08:00:18;;;;;;;15.88;6.78;;;0.80;99.90;;;;;;4984731;28;20030;-84
2021/12/09 08:02:45;;;;;;;9.00;4.38;;;0.80;99.90;;;;;;5011432;28;20054;-84
2021/12/09 08:05:12;;;;;;;15.95;5.88;;;0.90;99.90;;;;;;4970691;28;20042;-84
2021/12/09 08:07:41;;;;;;;12.15;5.10;;;0.90;99.90;;;;;;4989713;28;20034;-83
2021/12/09 08:10:08;;;;;;;13.55;5.88;;;0.90;99.90;;;;;;4968081;28;20104;-84
2021/12/09 08:12:34;;;;;;;14.00;5.43;;;0.80;99.90;;;;;;4987649;28;20052;-84
2021/12/09 08:15:00;;;;;;;12.50;4.70;;;0.80;99.90;;;;;;4977434;28;20034;-84
2021/12/09 08:20:08;;;;;;;15.45;5.60;;;0.90;99.90;;;;;;4985733;28;20045;-84
2021/12/09 08:22:35;;;;;;;13.18;5.50;;;0.90;99.90;;;;;;4973178;28;20132;-84
2021/12/09 08:25:01;;;;;;;13.07;5.55;;;0.90;99.90;;;;;;4992349;28;20030;-84
2021/12/09 08:27:28;;;;;;;16.05;6.05;;;0.90;99.90;;;;;;5015306;28;20050;-84
2021/12/09 08:29:54;;;;;;;13.30;5.00;;;0.90;99.90;;;;;;4993834;28;20550;-83
2021/12/09 08:32:20;;;;;;;13.32;5.55;;;0.90;99.90;;;;;;4980966;28;20054;-84
2021/12/09 08:34:45;;;;;;;14.43;5.78;;;0.90;99.90;;;;;;4993413;28;20053;-84
2021/12/09 08:37:12;;;;;;;9.68;5.00;;;0.90;99.90;;;;;;4992412;28;20030;-84
2021/12/09 08:39:37;;;;;;;18.48;5.15;;;0.90;99.90;;;;;;4991642;28;20087;-84
2021/12/09 08:42:03;;;;;;;18.85;5.53;;;1.00;99.90;;;;;;4987974;28;20267;-84
2021/12/09 08:44:29;;;;;;;13.77;4.90;;;1.00;99.90;;;;;;5009395;28;20486;-84
2021/12/09 08:46:55;;;;;;;14.48;5.72;;;1.00;99.90;;;;;;4992553;28;20040;-84
2021/12/09 08:49:20;;;;;;;16.92;5.85;;;1.00;99.90;;;;;;4993449;28;20461;-83
2021/12/09 08:51:46;;;;;;;14.13;5.00;;;1.10;99.90;;;;;;4983529;28;20045;-84
2021/12/09 08:54:13;;;;;;;10.50;4.63;;;1.10;99.90;;;;;;4988823;28;20477;-84
2021/12/09 08:56:38;;;;;;;10.60;4.88;;;1.10;99.90;;;;;;4970535;28;20491;-84
2021/12/09 08:59:06;;;;;;;10.82;4.80;;;1.10;99.90;;;;;;4976071;28;20049;-84
2021/12/09 09:01:35;;;;;;;10.95;5.28;;;1.10;99.90;;;;;;4992315;28;20037;-84
2021/12/09 09:04:01;;;;;;;9.85;4.07;;;1.20;99.90;;;;;;4992978;28;20495;-83
2021/12/09 09:06:29;;;;;;;13.30;4.90;;;1.20;99.90;;;;;;4996874;28;20049;-83
2021/12/09 09:08:57;;;;;;;11.35;4.55;;;1.30;99.90;;;;;;4993461;28;20038;-83
2021/12/09 09:11:24;;;;;;;9.73;4.68;;;1.20;99.90;;;;;;4976866;28;20038;-84
2021/12/09 09:13:50;;;;;;;11.45;5.00;;;1.30;99.90;;;;;;4994525;28;20038;-83
2021/12/09 09:16:16;;;;;;;11.38;4.65;;;1.30;99.90;;;;;;4991784;28;20073;-83
2021/12/09 09:18:42;;;;;;;11.57;4.78;;;1.30;99.90;;;;;;4969265;28;20381;-83
2021/12/09 09:21:08;;;;;;;11.07;5.03;;;1.40;99.90;;;;;;4993113;28;20096;-83
2021/12/09 09:23:33;;;;;;;11.00;5.18;;;1.40;99.90;;;;;;4991967;28;20081;-83
2021/12/09 09:26:00;;;;;;;14.02;5.20;;;1.50;99.90;;;;;;4997976;28;20519;-83
2021/12/09 09:28:26;;;;;;;11.43;5.00;;;1.50;99.90;;;;;;4976900;28;20044;-84
2021/12/09 09:30:57;;;;;;;15.80;4.97;;;1.60;99.90;;;;;;5009674;28;20034;-84
2021/12/09 09:33:28;;;;;;;11.48;4.75;;;1.60;99.90;;;;;;5013752;28;20141;-84
2021/12/09 09:35:54;;;;;;;8.75;4.35;;;1.70;99.90;;;;;;4992829;28;20041;-84
2021/12/09 09:38:21;;;;;;;7.25;3.85;;;1.70;99.90;;;;;;4989149;28;20042;-84
2021/12/09 09:40:52;;;;;;;10.70;3.92;;;1.80;99.90;;;;;;5000323;28;20525;-84
2021/12/09 09:45:55;;;;;;;12.32;4.32;;;1.90;99.90;;;;;;4993464;28;20053;-84
2021/12/09 09:48:21;;;;;;;14.05;4.22;;;2.00;99.90;;;;;;4976740;28;20042;-84
2021/12/09 09:50:47;;;;;;;11.13;4.38;;;2.00;99.90;;;;;;4992228;28;20046;-84
2021/12/09 09:53:12;;;;;;;11.65;4.38;;;2.10;99.90;;;;;;4992050;28;20045;-84
2021/12/09 09:55:38;;;;;;;9.73;4.55;;;2.10;99.90;;;;;;4974041;28;20491;-84
2021/12/09 09:58:04;;;;;;;9.10;4.60;;;2.20;99.90;;;;;;4990738;28;20041;-84
2021/12/09 10:00:30;;;;;;;10.07;4.30;;;2.20;99.90;;;;;;5027020;28;20048;-84
2021/12/09 10:02:59;;;;;;;11.50;4.40;;;2.20;99.90;;;;;;4996153;28;20054;-84
2021/12/09 10:05:33;;;;;;;10.60;4.50;;;2.20;99.90;;;;;;5020845;28;20140;-84
2021/12/09 10:07:59;;;;;;;9.85;4.18;;;2.30;99.90;;;;;;4974847;28;20038;-84
2021/12/09 10:10:24;;;;;;;13.10;4.68;;;2.30;99.90;;;;;;4997949;28;20501;-83
2021/12/09 10:13:03;;;;;;;9.07;3.95;;;2.30;99.90;;;;;;4996051;28;20111;-84
2021/12/09 10:15:50;;;;;;;11.18;4.25;;;2.40;99.90;;;;;;4982326;28;20087;-84
2021/12/09 10:18:33;;;;;;;9.38;4.55;;;2.40;99.90;;;;;;4991895;28;20117;-84
2021/12/09 10:20:59;;;;;;;12.48;4.70;;;2.40;99.90;;;;;;4979726;28;20145;-83
2021/12/09 10:23:33;;;;;;;13.60;4.03;;;2.50;99.90;;;;;;5004001;28;20046;-83
2021/12/09 10:26:22;;;;;;;12.98;4.40;;;2.50;99.90;;;;;;4976174;28;20042;-83
2021/12/09 10:29:01;;;;;;;10.95;4.10;;;2.50;99.90;;;;;;4974953;28;20144;-83
2021/12/09 10:31:34;;;;;;;10.48;4.75;;;2.60;99.90;;;;;;5024632;28;20038;-83
2021/12/09 10:36:56;;;;;;;;;;;2.70;99.90;;;;;;4991856;28;20045;-83
2021/12/09 10:39:26;;;;;;;8.85;3.80;;;2.70;99.90;;;;;;4977466;28;19971;-83
2021/12/09 10:41:53;;;;;;;12.13;4.82;;;2.80;99.90;;;;;;4976649;28;20437;-83
2021/12/09 10:44:30;;;;;;;12.40;4.55;;;2.80;99.90;;;;;;4991736;28;20092;-83
2021/12/09 10:47:06;;;;;;;12.10;4.55;;;2.80;99.90;;;;;;5001193;28;20034;-83
2021/12/09 10:49:41;;;;;;;10.95;5.45;;;2.80;99.90;;;;;;4995397;28;20041;-83
2021/12/09 10:52:20;;;;;;;9.00;4.70;;;2.90;99.90;;;;;;4994594;28;20205;-83
2021/12/09 10:54:46;;;;;;;11.60;5.15;;;2.90;99.90;;;;;;4994592;28;20041;-83
2021/12/09 10:57:32;;;;;;;10.70;5.18;;;2.90;99.90;;;;;;5022957;28;20479;-83
2021/12/09 11:00:15;;;;;;;14.00;6.10;;;3.00;99.90;;;;;;4995487;28;20377;-83
2021/12/09 11:02:57;;;;;;;14.98;6.53;;;3.00;99.90;;;;;;4995474;28;20050;-83
2021/12/09 11:05:23;;;;;;;13.50;5.07;;;3.00;99.90;;;;;;5003558;28;20033;-84
2021/12/09 11:07:48;;;;;;;14.38;6.05;;;3.10;99.90;;;;;;4978896;28;20144;-84
2021/12/09 11:10:23;;;;;;;15.73;5.88;;;3.10;99.90;;;;;;4995765;28;20463;-83
2021/12/09 11:12:55;;;;;;;13.73;5.78;;;3.10;99.90;;;;;;4976682;28;20044;-83
2021/12/09 11:15:41;;;;;;;15.18;7.00;;;3.10;99.90;;;;;;4995378;28;20045;-83
2021/12/09 11:18:46;;;;;;;16.98;6.88;;;3.10;99.90;;;;;;5010963;28;20034;-84
2021/12/09 11:21:29;;;;;;;18.40;7.03;;;3.10;99.90;;;;;;4971584;28;20046;-83
2021/12/09 11:24:03;;;;;;;17.08;7.03;;;3.20;99.90;;;;;;4995087;28;20406;-84
2021/12/09 11:26:43;;;;;;;14.52;6.22;;;3.20;99.90;;;;;;5008396;28;20074;-84
2021/12/09 11:29:17;;;;;;;14.60;6.93;;;3.20;99.90;;;;;;4996013;28;20061;-84
2021/12/09 11:35:16;;;;;;;17.55;7.90;;;3.20;99.90;;;;;;4994571;28;20038;-84
2021/12/09 11:38:00;;;;;;;12.68;6.78;;;3.30;99.90;;;;;;4983212;28;20475;-84
2021/12/09 11:43:07;;;;;;;16.83;6.85;;;3.40;99.90;;;;;;4993622;28;20062;-84
2021/12/09 11:45:37;;;;;;;21.02;7.47;;;3.40;99.90;;;;;;4992296;28;20445;-84
2021/12/09 11:48:05;;;;;;;16.73;7.00;;;3.40;99.90;;;;;;4996433;28;20044;-84
2021/12/09 11:50:37;;;;;;;14.73;6.60;;;3.40;99.90;;;;;;4996387;28;20057;-84
2021/12/09 11:53:07;;;;;;;17.15;7.45;;;3.40;99.90;;;;;;4988671;28;20061;-84
2021/12/09 11:55:37;;;;;;;16.65;7.47;;;3.40;99.90;;;;;;4990070;28;20155;-84
2021/12/09 11:58:15;;;;;;;16.08;8.13;;;3.40;99.90;;;;;;4992623;28;20034;-84
2021/12/09 12:13:10;;;;;;;19.95;7.90;;;3.50;99.90;;;;;;4992261;28;20046;-84
2021/12/09 12:15:38;;;;;;;14.98;7.18;;;3.50;99.90;;;;;;4984355;28;20084;-84
2021/12/09 12:21:06;;;;;;;17.42;8.13;;;3.50;99.90;;;;;;4997443;28;20917;-84
2021/12/09 12:24:03;;;;;;;15.85;7.60;;;3.60;99.90;;;;;;4991551;28;20041;-84
2021/12/09 12:29:41;;;;;;;20.45;8.60;;;3.60;99.90;;;;;;4992611;28;20503;-84
2021/12/09 12:38:08;;;;;;;21.02;9.00;;;3.70;99.90;;;;;;4994421;28;20049;-83
2021/12/09 12:40:38;;;;;;;22.05;9.00;;;3.70;99.90;;;;;;4999299;28;20538;-84
2021/12/09 12:43:15;;;;;;;15.35;8.48;;;3.70;99.90;;;;;;4980175;28;20050;-84
2021/12/09 12:51:13;;;;;;;18.27;8.20;;;3.70;99.90;;;;;;4991632;28;20046;-84
2021/12/09 12:53:44;;;;;;;16.65;6.50;;;3.80;99.90;;;;;;4996308;28;20048;-84
2021/12/09 12:56:24;;;;;;;19.52;8.95;;;3.80;99.90;;;;;;4992471;28;20136;-84
2021/12/09 12:59:05;;;;;;;20.17;8.25;;;3.80;99.90;;;;;;4989483;28;20044;-83
2021/12/09 13:01:34;;;;;;;17.65;8.13;;;3.80;99.90;;;;;;4984634;28;20566;-83
2021/12/09 13:04:11;;;;;;;16.67;8.25;;;3.80;99.90;;;;;;4979519;28;20085;-84
2021/12/09 13:06:46;;;;;;;15.75;7.63;;;3.80;99.90;;;;;;4968966;28;20511;-84
2021/12/09 13:09:32;;;;;;;19.52;9.27;;;3.80;99.90;;;;;;4975367;28;20042;-84
2021/12/09 13:12:06;;;;;;;17.17;7.57;;;3.90;99.90;;;;;;4990856;28;20052;-84
2021/12/09 13:14:35;;;;;;;17.60;8.43;;;3.80;99.90;;;;;;4990014;28;20408;-83
2021/12/09 13:19:34;;;;;;;18.30;7.10;;;3.80;99.90;;;;;;4991300;28;20365;-84
2021/12/09 13:22:22;;;;;;;14.10;7.28;;;3.90;99.90;;;;;;4998804;28;20053;-84
2021/12/09 13:25:02;;;;;;;16.70;7.90;;;3.80;99.90;;;;;;4987907;28;20490;-84
2021/12/09 13:27:46;;;;;;;15.30;7.55;;;3.80;99.90;;;;;;4975856;28;20096;-84
2021/12/09 13:33:13;;;;;;;10.98;6.68;;;3.90;99.90;;;;;;4992176;28;20041;-84
2021/12/09 13:36:02;;;;;;;13.93;6.50;;;3.90;99.90;;;;;;4979423;28;20483;-84
2021/12/09 13:55:16;;;;;;;17.98;7.43;;;4.00;99.90;;;;;;4984765;28;20579;-84
2021/12/09 13:57:46;;;;;;;13.70;7.32;;;3.90;99.90;;;;;;4984597;28;20406;-83
2021/12/09 14:00:34;;;;;;;15.85;6.28;;;3.90;99.90;;;;;;4990652;28;20380;-84
2021/12/09 14:03:16;;;;;;;18.02;8.35;;;3.90;99.90;;;;;;4974391;28;20058;-84
2021/12/09 14:05:53;;;;;;;16.40;7.13;;;3.90;99.90;;;;;;4994085;28;20037;-84